Time;durP1;ratioP1;P1;durP2;ratioP2;P2;SDS_P1;SDS_P2;PMS_P1;PMS_P2;Temp;Humidity;BMP_temperature;BMP_pressure;BME280_temperature;BME280_humidity;BME280_pressure;Samples;Min_cycle;Max_cycle;Signal;HPM_P1;HPM_P2
2022/10/05 00:00:25;;;;;;;7.13;3.83;;;12.40;99.90;;;;;;5043481;28;20693;-69
2022/10/05 00:02:51;;;;;;;6.83;3.60;;;12.40;99.90;;;;;;5023946;28;20223;-70
2022/10/05 00:05:31;;;;;;;6.93;3.50;;;12.40;99.90;;;;;;5019873;28;20204;-70
2022/10/05 00:08:11;;;;;;;4.80;3.43;;;12.40;99.90;;;;;;5039545;28;20942;-70
2022/10/05 00:10:40;;;;;;;5.27;3.77;;;12.30;99.90;;;;;;5039696;28;20312;-70
2022/10/05 00:13:15;;;;;;;6.47;3.33;;;12.40;99.90;;;;;;5039525;28;20180;-70
2022/10/05 00:15:41;;;;;;;5.83;3.37;;;12.30;99.90;;;;;;5039627;28;20282;-70
2022/10/05 00:18:20;;;;;;;6.27;3.70;;;12.20;99.90;;;;;;5021200;28;20216;-70
2022/10/05 00:20:47;;;;;;;6.90;3.50;;;12.20;99.90;;;;;;5020166;28;20302;-70
2022/10/05 00:23:17;;;;;;;9.63;3.77;;;12.20;99.90;;;;;;5040020;28;20216;-70
2022/10/05 00:25:43;;;;;;;5.87;3.60;;;12.20;99.90;;;;;;5040658;28;20265;-70
2022/10/05 00:28:26;;;;;;;7.33;3.53;;;12.20;99.90;;;;;;5039092;28;20224;-70
2022/10/05 00:30:58;;;;;;;5.87;3.43;;;12.20;99.90;;;;;;5015348;28;20215;-71
2022/10/05 00:33:24;;;;;;;9.53;4.10;;;12.20;99.90;;;;;;5041016;28;20229;-70
2022/10/05 00:35:50;;;;;;;6.40;3.53;;;12.10;99.90;;;;;;5039111;28;20216;-70
2022/10/05 00:38:16;;;;;;;7.60;3.37;;;12.20;99.90;;;;;;5039288;28;20205;-70
2022/10/05 00:41:02;;;;;;;6.40;3.40;;;12.10;99.90;;;;;;5041277;28;20208;-70
2022/10/05 00:43:59;;;;;;;4.23;3.57;;;12.00;99.90;;;;;;5038135;28;20215;-70
2022/10/05 00:46:35;;;;;;;8.97;3.87;;;12.00;99.90;;;;;;5040195;28;20212;-70
2022/10/05 00:49:35;;;;;;;9.73;4.10;;;11.90;99.90;;;;;;5039225;28;20192;-70
2022/10/05 00:52:33;;;;;;;6.53;3.40;;;11.90;99.90;;;;;;5037078;28;20271;-70
2022/10/05 00:55:26;;;;;;;5.23;3.40;;;11.90;99.90;;;;;;5011011;28;20319;-70
2022/10/05 00:58:10;;;;;;;6.77;3.67;;;11.90;99.90;;;;;;5038386;28;20186;-70
2022/10/05 01:00:52;;;;;;;6.97;3.30;;;11.90;99.90;;;;;;5039080;28;20175;-70
2022/10/05 01:03:38;;;;;;;6.20;3.83;;;11.90;99.90;;;;;;5036006;28;20284;-70
2022/10/05 01:06:21;;;;;;;8.73;3.60;;;11.80;99.90;;;;;;5037943;28;20224;-69
2022/10/05 01:09:11;;;;;;;6.03;3.67;;;11.80;99.90;;;;;;5021099;28;20288;-69
2022/10/05 01:11:57;;;;;;;6.30;4.00;;;11.80;99.90;;;;;;5038965;28;20393;-69
2022/10/05 01:14:39;;;;;;;6.33;3.63;;;11.90;99.90;;;;;;5040119;28;20215;-69
2022/10/05 01:17:09;;;;;;;7.50;4.00;;;11.90;99.90;;;;;;5004766;28;20216;-69
2022/10/05 01:19:58;;;;;;;5.47;3.80;;;11.80;99.90;;;;;;5037516;28;20227;-69
2022/10/05 01:22:41;;;;;;;4.63;3.67;;;11.80;99.90;;;;;;5019043;28;20244;-69
2022/10/05 01:25:39;;;;;;;7.07;3.90;;;11.80;99.90;;;;;;5019149;28;20220;-69
2022/10/05 01:28:12;;;;;;;5.63;3.50;;;11.90;99.90;;;;;;5035660;28;20266;-69
2022/10/05 01:31:00;;;;;;;7.27;4.03;;;11.80;99.90;;;;;;5041107;28;20168;-69
2022/10/05 01:34:06;;;;;;;5.07;3.60;;;11.80;99.90;;;;;;5040553;28;20200;-70
2022/10/05 01:37:10;;;;;;;6.50;3.50;;;11.80;99.90;;;;;;5037096;28;20702;-69
2022/10/05 01:39:54;;;;;;;5.17;3.50;;;11.90;99.90;;;;;;5035313;28;20222;-69
2022/10/05 01:42:35;;;;;;;4.83;3.40;;;11.80;99.90;;;;;;5021098;28;20563;-70
2022/10/05 01:45:25;;;;;;;7.40;3.83;;;11.80;99.90;;;;;;5035603;28;20242;-70
2022/10/05 01:47:59;;;;;;;7.67;3.63;;;11.80;99.90;;;;;;5036701;28;20214;-69
2022/10/05 01:50:36;;;;;;;6.07;3.53;;;11.80;99.90;;;;;;5043030;28;20211;-72
2022/10/05 01:53:45;;;;;;;6.70;3.70;;;11.70;99.90;;;;;;5038641;28;20208;-70
2022/10/05 01:56:27;;;;;;;8.53;3.20;;;11.70;99.90;;;;;;5019787;28;20223;-69
2022/10/05 01:59:17;;;;;;;8.37;4.03;;;11.60;99.90;;;;;;5025626;28;20713;-69
2022/10/05 02:01:55;;;;;;;6.30;3.97;;;11.60;99.90;;;;;;5041963;28;20207;-69
2022/10/05 02:04:32;;;;;;;6.43;3.77;;;11.60;99.90;;;;;;5039140;28;20211;-70
2022/10/05 02:07:01;;;;;;;5.77;3.57;;;11.60;99.90;;;;;;5014131;22;1059235;-68
2022/10/05 02:09:45;;;;;;;7.00;4.23;;;11.50;99.90;;;;;;5028217;28;20185;-68
2022/10/05 02:12:18;;;;;;;6.37;3.70;;;11.60;99.90;;;;;;5030446;28;20296;-68
2022/10/05 02:14:49;;;;;;;9.63;3.50;;;11.50;99.90;;;;;;5024748;28;20220;-68
2022/10/05 02:17:25;;;;;;;5.13;3.40;;;11.50;99.90;;;;;;5011560;28;20215;-67
2022/10/05 02:19:57;;;;;;;5.57;3.73;;;11.50;99.90;;;;;;5028618;28;20208;-68
2022/10/05 02:22:34;;;;;;;7.60;3.77;;;11.40;99.90;;;;;;5015484;28;20212;-68
2022/10/05 02:25:17;;;;;;;9.50;3.73;;;11.40;99.90;;;;;;5025722;28;20192;-67
2022/10/05 02:27:52;;;;;;;5.90;3.33;;;11.40;99.90;;;;;;5026455;28;20245;-68
2022/10/05 02:30:18;;;;;;;7.17;4.10;;;11.40;99.90;;;;;;5028069;28;20207;-69
2022/10/05 02:32:51;;;;;;;7.03;3.67;;;11.40;99.90;;;;;;5027079;28;20216;-68
2022/10/05 02:35:20;;;;;;;7.03;3.80;;;11.40;99.90;;;;;;5026982;28;20209;-68
2022/10/05 02:37:49;;;;;;;6.83;3.60;;;11.30;99.90;;;;;;5014631;28;20862;-67
2022/10/05 02:40:41;;;;;;;6.03;3.57;;;11.30;99.90;;;;;;5010876;28;20698;-68
2022/10/05 02:43:22;;;;;;;5.67;3.60;;;11.30;99.90;;;;;;5027111;28;20278;-69
2022/10/05 02:45:59;;;;;;;7.73;3.87;;;11.40;99.90;;;;;;5027913;28;20206;-67
2022/10/05 02:48:25;;;;;;;7.43;3.80;;;11.30;99.90;;;;;;5028200;28;20243;-68
2022/10/05 02:50:55;;;;;;;5.27;4.07;;;11.30;99.90;;;;;;5011615;28;20240;-68
2022/10/05 02:53:29;;;;;;;6.07;4.27;;;11.20;99.90;;;;;;5024869;28;20288;-68
2022/10/05 02:56:28;;;;;;;9.97;3.53;;;11.20;99.90;;;;;;5028139;28;20208;-67
2022/10/05 02:59:12;;;;;;;7.50;3.10;;;11.10;99.90;;;;;;5025672;28;20239;-68
2022/10/05 03:01:51;;;;;;;5.70;3.47;;;11.10;99.90;;;;;;5026970;28;20288;-68
2022/10/05 03:04:34;;;;;;;8.70;3.73;;;11.10;99.90;;;;;;5030024;28;20204;-68
2022/10/05 03:07:32;;;;;;;8.97;3.93;;;11.10;99.90;;;;;;5025319;28;20318;-68
2022/10/05 03:10:13;;;;;;;5.60;3.30;;;11.10;99.90;;;;;;5022018;28;20626;-69
2022/10/05 03:12:59;;;;;;;7.17;3.80;;;11.10;99.90;;;;;;5030540;28;20180;-68
2022/10/05 03:15:52;;;;;;;7.00;3.67;;;11.20;99.90;;;;;;5017569;28;20303;-68
2022/10/05 03:18:45;;;;;;;6.33;3.43;;;11.20;99.90;;;;;;5028186;28;20196;-67
2022/10/05 03:21:20;;;;;;;6.40;3.77;;;11.20;99.90;;;;;;5029369;28;20293;-69
2022/10/05 03:24:11;;;;;;;8.23;3.23;;;11.20;99.90;;;;;;5012522;28;20246;-69
2022/10/05 03:26:51;;;;;;;7.93;4.10;;;11.30;99.90;;;;;;5023903;28;20291;-68
2022/10/05 03:29:39;;;;;;;6.97;3.70;;;11.30;99.90;;;;;;5029929;28;20211;-67
2022/10/05 03:32:15;;;;;;;6.00;3.50;;;11.30;99.90;;;;;;5012396;28;20212;-68
2022/10/05 03:34:53;;;;;;;6.10;3.87;;;11.30;99.90;;;;;;5011945;28;20283;-68
2022/10/05 03:37:26;;;;;;;4.77;3.27;;;11.30;99.90;;;;;;5026991;28;20219;-69
2022/10/05 03:40:30;;;;;;;7.87;3.80;;;11.30;99.90;;;;;;5026303;28;20184;-67
2022/10/05 03:43:16;;;;;;;6.33;3.67;;;11.30;99.90;;;;;;5027391;28;20200;-69
2022/10/05 03:46:06;;;;;;;8.20;4.33;;;11.30;99.90;;;;;;5014568;28;20175;-69
2022/10/05 03:48:48;;;;;;;7.53;3.60;;;11.30;99.90;;;;;;5028285;28;20201;-69
2022/10/05 03:51:22;;;;;;;6.10;3.23;;;11.40;99.90;;;;;;5024924;28;20200;-69
2022/10/05 03:54:15;;;;;;;4.73;3.40;;;11.40;99.90;;;;;;5023659;28;20207;-68
2022/10/05 03:56:59;;;;;;;6.57;3.40;;;11.40;99.90;;;;;;5005181;28;20213;-69
2022/10/05 03:59:30;;;;;;;4.77;3.67;;;11.40;99.90;;;;;;5024938;28;20211;-69
2022/10/05 04:02:20;;;;;;;8.83;3.60;;;11.40;99.90;;;;;;5009971;28;20250;-68
2022/10/05 04:05:04;;;;;;;7.27;3.17;;;11.40;99.90;;;;;;5025884;28;20208;-68
2022/10/05 04:07:57;;;;;;;7.17;3.87;;;11.40;99.90;;;;;;5025166;28;20243;-68
2022/10/05 04:10:31;;;;;;;4.17;2.80;;;11.40;99.90;;;;;;5023418;28;20682;-68
2022/10/05 04:13:12;;;;;;;5.83;3.30;;;11.40;99.90;;;;;;5010070;28;20238;-69
2022/10/05 04:15:47;;;;;;;6.37;3.37;;;11.40;99.90;;;;;;5030640;28;20732;-68
2022/10/05 04:18:31;;;;;;;7.87;3.67;;;11.40;99.90;;;;;;5023243;28;20678;-69
2022/10/05 04:21:05;;;;;;;7.47;3.67;;;11.50;99.90;;;;;;5026010;28;20216;-69
2022/10/05 04:23:46;;;;;;;6.80;3.60;;;11.50;99.90;;;;;;5013343;28;20282;-69
2022/10/05 04:26:44;;;;;;;5.53;3.47;;;11.40;99.90;;;;;;5011635;28;20216;-68
2022/10/05 04:29:44;;;;;;;6.60;3.17;;;11.40;99.90;;;;;;5027963;28;20237;-68
2022/10/05 04:32:22;;;;;;;8.27;3.97;;;11.30;99.90;;;;;;5025444;28;20289;-69
2022/10/05 04:34:59;;;;;;;6.37;3.50;;;11.30;99.90;;;;;;5021508;28;20204;-69
2022/10/05 04:37:33;;;;;;;6.47;3.30;;;11.30;99.90;;;;;;5026653;28;20215;-68
2022/10/05 04:40:23;;;;;;;7.10;3.63;;;11.30;99.90;;;;;;5010475;28;20542;-69
2022/10/05 04:43:14;;;;;;;6.03;3.70;;;11.30;99.90;;;;;;5019654;28;20201;-68
2022/10/05 04:45:48;;;;;;;7.50;4.37;;;11.40;99.90;;;;;;5029660;28;20165;-69
2022/10/05 04:48:28;;;;;;;6.23;4.23;;;11.40;99.90;;;;;;5028426;28;20200;-69
2022/10/05 04:51:18;;;;;;;5.23;3.53;;;11.40;99.90;;;;;;5021800;28;20239;-68
2022/10/05 04:53:54;;;;;;;7.10;3.60;;;11.40;99.90;;;;;;5025888;28;20215;-67
2022/10/05 04:56:38;;;;;;;6.37;3.50;;;11.30;99.90;;;;;;5024805;28;20261;-68
2022/10/05 04:59:13;;;;;;;7.17;3.57;;;11.30;99.90;;;;;;5021550;28;20884;-69
2022/10/05 05:02:05;;;;;;;6.87;3.70;;;11.30;99.90;;;;;;5016927;28;20340;-68
2022/10/05 05:04:36;;;;;;;5.77;4.30;;;11.20;99.90;;;;;;5014267;28;20223;-68
2022/10/05 05:07:23;;;;;;;5.77;4.00;;;11.20;99.90;;;;;;5028218;28;20263;-68
2022/10/05 05:10:26;;;;;;;6.50;3.43;;;11.20;99.90;;;;;;5020584;28;20191;-69
2022/10/05 05:13:19;;;;;;;5.13;4.17;;;11.20;99.90;;;;;;5011283;28;20176;-68
2022/10/05 05:15:55;;;;;;;7.87;3.97;;;11.20;99.90;;;;;;5013710;28;20184;-67
2022/10/05 05:18:48;;;;;;;5.83;3.30;;;11.30;99.90;;;;;;5005683;28;20212;-68
2022/10/05 05:21:31;;;;;;;5.87;4.27;;;11.30;99.90;;;;;;5036379;28;20204;-69
2022/10/05 05:24:30;;;;;;;7.63;3.80;;;11.30;99.90;;;;;;5027993;28;20302;-68
2022/10/05 05:27:07;;;;;;;7.63;4.00;;;11.40;99.90;;;;;;5021143;28;20220;-68
2022/10/05 05:30:01;;;;;;;8.50;3.90;;;11.40;99.90;;;;;;5031019;28;20224;-69
2022/10/05 05:32:51;;;;;;;6.63;4.10;;;11.50;99.90;;;;;;5025531;28;20748;-69
2022/10/05 05:35:37;;;;;;;7.77;3.70;;;11.40;99.90;;;;;;5024584;28;20631;-68
2022/10/05 05:38:32;;;;;;;8.03;4.00;;;11.50;99.90;;;;;;5034466;28;20216;-69
2022/10/05 05:41:36;;;;;;;9.40;4.03;;;11.50;99.90;;;;;;5028708;28;20216;-68
2022/10/05 05:44:22;;;;;;;8.13;4.13;;;11.50;99.90;;;;;;5000866;28;20220;-69
2022/10/05 05:46:59;;;;;;;9.07;4.27;;;11.50;99.90;;;;;;5030864;28;20224;-68
2022/10/05 05:49:30;;;;;;;7.57;4.10;;;11.50;99.90;;;;;;5027650;28;20218;-68
2022/10/05 05:52:13;;;;;;;8.93;4.40;;;11.60;99.90;;;;;;5022036;28;20188;-69
2022/10/05 05:54:53;;;;;;;7.30;4.20;;;11.60;99.90;;;;;;5019103;28;20226;-68
2022/10/05 05:57:33;;;;;;;8.90;4.40;;;11.80;99.90;;;;;;5028257;28;20569;-68
2022/10/05 06:00:05;;;;;;;9.10;4.40;;;12.00;99.90;;;;;;5022145;28;20312;-68
2022/10/05 06:02:41;;;;;;;6.60;4.27;;;12.10;99.90;;;;;;5032888;28;20211;-69
2022/10/05 06:05:29;;;;;;;7.00;3.90;;;12.10;99.90;;;;;;5018193;28;20204;-69
2022/10/05 06:07:57;;;;;;;7.60;4.20;;;12.20;99.90;;;;;;5026004;28;20216;-67
2022/10/05 06:10:40;;;;;;;6.70;3.90;;;12.20;99.90;;;;;;5025737;28;20204;-70
2022/10/05 06:13:14;;;;;;;7.60;4.27;;;12.30;99.90;;;;;;5018464;28;20212;-70
2022/10/05 06:15:47;;;;;;;5.93;4.07;;;12.40;99.90;;;;;;5032386;28;20169;-70
2022/10/05 06:18:17;;;;;;;6.17;4.37;;;12.50;99.90;;;;;;5023709;28;20200;-70
2022/10/05 06:20:49;;;;;;;7.80;3.97;;;12.60;99.90;;;;;;5031311;28;20212;-69
2022/10/05 06:23:37;;;;;;;7.00;4.63;;;12.50;99.90;;;;;;5014005;28;20254;-68
2022/10/05 06:26:27;;;;;;;6.37;4.10;;;12.60;99.90;;;;;;5023140;28;20213;-69
2022/10/05 06:29:02;;;;;;;7.00;4.67;;;12.60;99.90;;;;;;5031860;28;20208;-70
2022/10/05 06:31:51;;;;;;;7.07;4.40;;;12.70;99.90;;;;;;5030664;28;20244;-70
2022/10/05 06:34:46;;;;;;;11.93;4.60;;;12.70;99.90;;;;;;5030123;28;20204;-71
2022/10/05 06:37:23;;;;;;;9.03;4.57;;;12.80;99.90;;;;;;5034380;28;20289;-69
2022/10/05 06:40:04;;;;;;;8.73;4.60;;;12.90;99.90;;;;;;5032043;28;20168;-68
2022/10/05 06:42:44;;;;;;;8.57;4.67;;;13.10;99.90;;;;;;5029601;28;20538;-69
2022/10/05 06:45:28;;;;;;;7.60;3.83;;;13.10;99.90;;;;;;5034848;28;20234;-70
2022/10/05 06:48:08;;;;;;;6.13;3.90;;;13.20;99.90;;;;;;5032909;28;20224;-69
2022/10/05 06:50:43;;;;;;;10.00;3.93;;;13.00;99.90;;;;;;5028284;28;20300;-70
2022/10/05 06:53:33;;;;;;;6.00;3.70;;;13.10;99.90;;;;;;5017414;28;20274;-70
2022/10/05 06:56:35;;;;;;;10.97;3.87;;;13.20;99.90;;;;;;5034788;28;20212;-70
2022/10/05 06:59:27;;;;;;;7.60;4.60;;;13.60;99.90;;;;;;5011996;28;20678;-70
2022/10/05 07:02:20;;;;;;;7.43;3.77;;;14.10;99.90;;;;;;5019068;28;20232;-69
2022/10/05 07:05:20;;;;;;;5.87;3.60;;;14.30;99.90;;;;;;5032630;28;20215;-70
2022/10/05 07:07:51;;;;;;;7.88;3.97;;;14.20;99.90;;;;;;5028206;28;20728;-68
2022/10/05 07:11:10;;;;;;;4.35;3.53;;;14.20;99.90;;;;;;5028837;28;20219;-70
2022/10/05 07:13:59;;;;;;;10.00;3.38;;;14.50;99.90;;;;;;4955095;28;20307;-70
2022/10/05 07:16:47;;;;;;;6.45;3.20;;;14.70;99.90;;;;;;5013335;28;20232;-70
2022/10/05 07:19:28;;;;;;;11.20;3.80;;;14.60;99.90;;;;;;5027596;28;20216;-70
2022/10/05 07:22:19;;;;;;;6.35;3.25;;;14.50;99.90;;;;;;5032938;28;20184;-68
2022/10/05 07:25:02;;;;;;;7.05;3.67;;;14.50;99.90;;;;;;5028657;28;20192;-69
2022/10/05 07:27:33;;;;;;;7.10;3.70;;;14.90;99.90;;;;;;5029791;28;20298;-70
2022/10/05 07:30:06;;;;;;;4.60;3.30;;;15.10;99.90;;;;;;5031914;28;20212;-70
2022/10/05 07:32:34;;;;;;;8.95;3.55;;;15.20;99.90;;;;;;5010908;28;20209;-70
2022/10/05 07:37:53;;;;;;;6.45;3.33;;;15.00;99.90;;;;;;5026894;28;20209;-70
2022/10/05 07:38:04;;;;;;;6.15;3.40;;;15.70;99.90;;;;;;5034722;28;20239;-69
2022/10/05 07:40:46;;;;;;;9.38;3.22;;;16.50;99.90;;;;;;5033280;28;20200;-68
2022/10/05 07:43:32;;;;;;;6.07;3.05;;;16.50;99.90;;;;;;5008815;28;20232;-70
2022/10/05 07:46:49;;;;;;;5.97;3.00;;;17.00;99.90;;;;;;5036005;28;20255;-70
2022/10/05 07:49:24;;;;;;;4.25;2.92;;;17.20;99.90;;;;;;4973293;28;20214;-69
2022/10/05 07:51:56;;;;;;;8.90;3.25;;;17.50;99.90;;;;;;5024521;28;20215;-69
2022/10/05 07:54:36;;;;;;;6.40;3.03;;;17.30;99.90;;;;;;5035076;28;20175;-70
2022/10/05 07:57:28;;;;;;;4.75;3.20;;;16.80;99.90;;;;;;5033605;28;20217;-70
2022/10/05 08:00:04;;;;;;;8.07;3.40;;;16.70;99.90;;;;;;5025531;28;20206;-69
2022/10/05 08:02:43;;;;;;;4.57;2.80;;;16.70;99.90;;;;;;5010878;28;20207;-70
2022/10/05 08:05:28;;;;;;;8.15;3.22;;;16.80;99.90;;;;;;5035350;28;20205;-70
2022/10/05 08:08:01;;;;;;;5.85;2.92;;;16.90;99.90;;;;;;5026192;28;20244;-68
2022/10/05 08:10:32;;;;;;;5.38;3.00;;;16.60;99.90;;;;;;5062513;23;20305;-70
2022/10/05 08:13:21;;;;;;;4.60;3.00;;;16.40;99.90;;;;;;5051864;28;20214;-70
2022/10/05 08:15:50;;;;;;;5.13;2.83;;;16.20;99.90;;;;;;5046111;28;20168;-71
2022/10/05 08:18:44;;;;;;;4.70;2.97;;;16.20;99.90;;;;;;5051653;28;20164;-70
2022/10/05 08:21:12;;;;;;;5.13;2.72;;;16.20;99.90;;;;;;5027888;28;20225;-71
2022/10/05 08:23:56;;;;;;;7.05;3.40;;;16.20;99.90;;;;;;5024901;28;20216;-70
2022/10/05 08:26:39;;;;;;;8.73;2.75;;;16.30;99.90;;;;;;5028990;28;20208;-71
2022/10/05 08:29:26;;;;;;;8.13;2.97;;;16.30;99.90;;;;;;5027201;28;20721;-70
2022/10/05 08:31:57;;;;;;;7.72;2.92;;;16.70;99.90;;;;;;5007662;28;20243;-70
2022/10/05 08:34:48;;;;;;;9.48;3.08;;;17.20;99.90;;;;;;5024637;28;20201;-70
2022/10/05 08:37:27;;;;;;;11.38;3.03;;;17.30;99.90;;;;;;5026020;28;20284;-70
2022/10/05 08:40:25;;;;;;;4.18;2.45;;;17.40;99.90;;;;;;5024388;28;20226;-71
2022/10/05 08:43:29;;;;;;;4.93;3.10;;;17.40;99.90;;;;;;5026522;28;20311;-70
2022/10/05 08:46:12;;;;;;;6.97;2.88;;;17.30;99.90;;;;;;5025958;28;20748;-69
2022/10/05 08:48:56;;;;;;;4.20;2.88;;;17.20;99.90;;;;;;5030941;28;20270;-70
2022/10/05 08:51:52;;;;;;;4.78;2.97;;;17.40;99.90;;;;;;5022886;28;20207;-69
2022/10/05 08:54:56;;;;;;;6.45;2.92;;;17.50;99.90;;;;;;5026395;28;20697;-69
2022/10/05 08:57:27;;;;;;;10.23;2.90;;;17.50;99.90;;;;;;5010949;28;20208;-69
2022/10/05 09:00:09;;;;;;;9.52;3.53;;;17.60;99.90;;;;;;5020560;28;20216;-69
2022/10/05 09:02:59;;;;;;;17.08;10.27;;;17.50;99.90;;;;;;5024249;28;20861;-70
2022/10/05 09:05:55;;;;;;;10.30;3.20;;;17.60;99.90;;;;;;5021754;28;20234;-69
2022/10/05 09:08:48;;;;;;;5.40;3.38;;;17.40;99.90;;;;;;5023777;28;20196;-69
2022/10/05 09:11:26;;;;;;;5.38;2.72;;;17.50;99.90;;;;;;5023541;28;20238;-69
2022/10/05 09:13:58;;;;;;;4.25;2.75;;;16.90;99.90;;;;;;5024628;28;20628;-69
2022/10/05 09:16:26;;;;;;;4.55;2.92;;;17.00;99.90;;;;;;5022757;28;20270;-69
2022/10/05 09:19:06;;;;;;;3.25;2.70;;;17.10;99.90;;;;;;5020934;28;20281;-70
2022/10/05 09:22:00;;;;;;;7.10;3.20;;;17.30;99.90;;;;;;5023486;28;20203;-70
2022/10/05 09:24:52;;;;;;;7.97;3.78;;;17.30;99.90;;;;;;5011573;28;20219;-69
2022/10/05 09:27:42;;;;;;;9.77;4.93;;;17.20;99.90;;;;;;5017749;28;20212;-70
2022/10/05 09:30:38;;;;;;;8.05;3.00;;;17.00;99.90;;;;;;5025952;28;20292;-69
2022/10/05 09:33:44;;;;;;;3.97;2.90;;;17.10;99.90;;;;;;5022983;28;20571;-69
2022/10/05 09:36:57;;;;;;;4.93;3.17;;;17.00;99.90;;;;;;5021013;28;20209;-69
2022/10/05 09:39:38;;;;;;;5.60;3.55;;;17.00;99.90;;;;;;4978661;28;20570;-70
2022/10/05 09:42:42;;;;;;;6.30;3.40;;;17.00;99.90;;;;;;5022670;28;20604;-69
2022/10/05 09:45:39;;;;;;;4.57;3.20;;;17.20;99.90;;;;;;5019398;28;20240;-70
2022/10/05 09:48:36;;;;;;;4.93;2.88;;;17.10;99.90;;;;;;5025848;28;20271;-70
2022/10/05 09:51:31;;;;;;;5.75;3.13;;;17.30;99.90;;;;;;5019421;28;20220;-70
2022/10/05 09:54:16;;;;;;;6.47;2.72;;;17.40;99.90;;;;;;5022380;28;20216;-70
2022/10/05 09:57:06;;;;;;;7.15;3.03;;;17.50;99.90;;;;;;5023588;28;20192;-69
2022/10/05 09:59:50;;;;;;;4.53;3.10;;;17.80;99.90;;;;;;5021839;28;20221;-70
2022/10/05 10:03:01;;;;;;;7.05;3.20;;;17.90;99.90;;;;;;5021684;28;20204;-70
2022/10/05 10:05:53;;;;;;;5.13;2.97;;;17.90;99.90;;;;;;5025158;28;20196;-69
2022/10/05 10:08:30;;;;;;;9.82;5.07;;;17.80;99.90;;;;;;5004820;28;20295;-70
2022/10/05 10:11:10;;;;;;;6.20;3.63;;;18.10;99.90;;;;;;5026366;28;20659;-69
2022/10/05 10:13:59;;;;;;;7.95;3.42;;;18.00;99.90;;;;;;5031530;28;20208;-70
2022/10/05 10:16:34;;;;;;;8.48;4.70;;;17.90;99.90;;;;;;5023401;28;20208;-70
2022/10/05 10:19:23;;;;;;;6.60;3.25;;;18.10;99.90;;;;;;5024768;28;20223;-70
2022/10/05 10:22:00;;;;;;;7.13;3.60;;;18.00;99.90;;;;;;4992857;28;20718;-70
2022/10/05 10:24:41;;;;;;;6.57;3.50;;;17.90;99.90;;;;;;5028213;28;20196;-70
2022/10/05 10:27:18;;;;;;;6.63;3.67;;;17.90;99.90;;;;;;5024374;28;20208;-69
2022/10/05 10:29:56;;;;;;;6.85;2.78;;;17.70;99.90;;;;;;5030605;28;20299;-68
2022/10/05 10:32:43;;;;;;;5.82;3.10;;;17.70;99.90;;;;;;5026913;28;20211;-68
2022/10/05 10:35:48;;;;;;;5.85;3.25;;;17.90;99.90;;;;;;5023705;28;20682;-69
2022/10/05 10:38:22;;;;;;;3.97;3.05;;;18.10;99.90;;;;;;5030837;28;20204;-69
2022/10/05 10:40:50;;;;;;;5.13;2.95;;;18.10;99.90;;;;;;5026769;28;20621;-69
2022/10/05 10:43:28;;;;;;;6.47;3.60;;;18.20;99.90;;;;;;5008450;28;20801;-69
2022/10/05 10:46:31;;;;;;;7.32;4.97;;;18.30;99.90;;;;;;5024783;28;20646;-69
2022/10/05 10:49:21;;;;;;;6.43;3.70;;;18.50;99.90;;;;;;5026994;28;20201;-72
2022/10/05 10:52:05;;;;;;;7.35;3.10;;;18.60;99.90;;;;;;5025264;28;20556;-68
2022/10/05 10:54:45;;;;;;;3.97;3.15;;;18.50;99.90;;;;;;5030164;28;20168;-69
2022/10/05 10:57:20;;;;;;;3.95;2.95;;;18.70;99.90;;;;;;5027785;28;20207;-69
2022/10/05 11:00:06;;;;;;;6.72;3.38;;;18.90;99.90;;;;;;5023960;28;20219;-69
2022/10/05 11:02:59;;;;;;;6.63;2.85;;;18.80;99.90;;;;;;5025958;28;20208;-69
2022/10/05 11:05:36;;;;;;;4.97;2.88;;;18.80;99.90;;;;;;5025209;28;20209;-69
2022/10/05 11:08:17;;;;;;;5.18;3.03;;;18.80;99.90;;;;;;5006076;28;20687;-69
2022/10/05 11:11:01;;;;;;;6.00;3.30;;;18.80;99.90;;;;;;5024840;28;20228;-71
2022/10/05 11:14:01;;;;;;;8.00;3.35;;;19.00;99.90;;;;;;5023624;28;20280;-69
2022/10/05 11:16:52;;;;;;;5.35;3.20;;;19.20;99.90;;;;;;5031077;28;20219;-70
2022/10/05 11:19:37;;;;;;;5.18;2.80;;;19.70;99.90;;;;;;5028449;28;20250;-71
2022/10/05 11:22:40;;;;;;;5.60;3.05;;;19.80;99.90;;;;;;5028489;28;20643;-71
2022/10/05 11:25:18;;;;;;;4.85;2.80;;;19.80;99.90;;;;;;5020436;28;20718;-72
2022/10/05 11:28:07;;;;;;;5.90;3.45;;;19.90;99.90;;;;;;5013601;28;20199;-68
2022/10/05 11:30:41;;;;;;;7.70;3.75;;;19.80;99.90;;;;;;5008574;28;20261;-72
2022/10/05 11:33:37;;;;;;;4.15;3.60;;;19.90;99.90;;;;;;5023646;28;20212;-67
2022/10/05 11:36:36;;;;;;;7.35;2.92;;;19.90;99.90;;;;;;5020847;28;20969;-68
2022/10/05 11:39:43;;;;;;;5.55;3.30;;;19.90;99.90;;;;;;5026971;28;20220;-70
2022/10/05 11:42:46;;;;;;;5.05;3.50;;;19.70;99.90;;;;;;4997598;28;20211;-69
2022/10/05 11:45:25;;;;;;;3.85;3.17;;;19.60;99.90;;;;;;5012597;28;20698;-69
2022/10/05 11:48:33;;;;;;;5.95;2.97;;;19.50;99.90;;;;;;5025690;28;20220;-70
2022/10/05 11:51:37;;;;;;;4.22;2.88;;;19.60;99.90;;;;;;5007369;28;20209;-69
2022/10/05 11:54:22;;;;;;;6.75;3.13;;;19.40;99.90;;;;;;5026960;28;20912;-71
2022/10/05 11:56:55;;;;;;;5.13;3.40;;;19.30;99.90;;;;;;5027077;28;20299;-73
2022/10/05 11:59:33;;;;;;;4.45;2.95;;;19.20;99.90;;;;;;5004619;28;20212;-69
2022/10/05 12:02:23;;;;;;;7.32;3.78;;;19.20;99.90;;;;;;5029006;28;20265;-69
2022/10/05 12:05:21;;;;;;;6.47;3.60;;;19.40;99.90;;;;;;5024611;28;20600;-69
2022/10/05 12:07:55;;;;;;;5.55;3.15;;;19.60;99.90;;;;;;5024342;28;20231;-69
2022/10/05 12:10:50;;;;;;;7.18;3.20;;;19.90;99.90;;;;;;5022484;28;20223;-70
2022/10/05 12:13:40;;;;;;;4.13;2.80;;;20.00;99.90;;;;;;5020564;28;20269;-69
2022/10/05 12:16:09;;;;;;;7.53;3.05;;;20.20;99.90;;;;;;5024795;28;20713;-69
2022/10/05 12:18:38;;;;;;;5.13;3.28;;;20.40;99.90;;;;;;5024540;28;20651;-69
2022/10/05 12:21:26;;;;;;;6.15;3.20;;;20.60;99.90;;;;;;5027295;28;20237;-69
2022/10/05 12:23:57;;;;;;;4.97;2.90;;;20.50;99.90;;;;;;5024797;28;20220;-69
2022/10/05 12:26:31;;;;;;;4.72;2.92;;;20.60;99.90;;;;;;5023279;28;20200;-70
2022/10/05 12:29:26;;;;;;;3.90;2.47;;;20.60;99.90;;;;;;5022209;28;20286;-70
2022/10/05 12:32:10;;;;;;;4.80;2.65;;;20.60;99.90;;;;;;5024819;28;20245;-69
2022/10/05 12:35:02;;;;;;;5.75;2.83;;;20.50;99.90;;;;;;5023245;28;20334;-69
2022/10/05 12:38:18;;;;;;;5.28;2.80;;;20.40;99.90;;;;;;5025831;28;20196;-69
2022/10/05 12:40:54;;;;;;;4.45;2.95;;;20.10;99.90;;;;;;5001150;28;20228;-69
2022/10/05 12:43:42;;;;;;;3.78;2.92;;;20.10;99.90;;;;;;5022227;28;20655;-69
2022/10/05 12:46:32;;;;;;;7.00;2.92;;;20.00;99.90;;;;;;5024415;28;20217;-69
2022/10/05 12:49:34;;;;;;;5.65;3.40;;;20.00;99.90;;;;;;5025146;28;20201;-69
2022/10/05 12:52:36;;;;;;;4.43;2.50;;;19.90;99.90;;;;;;5021258;28;20184;-69
2022/10/05 12:55:26;;;;;;;5.30;2.80;;;19.90;99.90;;;;;;5024483;28;20203;-69
2022/10/05 12:58:17;;;;;;;6.28;2.50;;;19.90;99.90;;;;;;5008621;28;20610;-69
2022/10/05 13:01:04;;;;;;;4.40;2.47;;;19.90;99.90;;;;;;5022617;28;20596;-69
2022/10/05 13:03:38;;;;;;;6.00;2.85;;;19.90;99.90;;;;;;5009485;28;20295;-69
2022/10/05 13:06:32;;;;;;;3.58;2.22;;;19.90;99.90;;;;;;5010896;28;20723;-69
2022/10/05 13:09:13;;;;;;;5.28;2.45;;;19.90;99.90;;;;;;5023145;28;20735;-69
2022/10/05 13:11:54;;;;;;;4.22;2.97;;;19.90;99.90;;;;;;5026104;28;20633;-69
2022/10/05 13:14:50;;;;;;;3.17;2.28;;;19.80;99.90;;;;;;5024616;28;20208;-69
2022/10/05 13:17:35;;;;;;;4.40;3.00;;;19.80;99.90;;;;;;5025625;28;20219;-69
2022/10/05 13:20:13;;;;;;;5.75;2.83;;;19.80;99.90;;;;;;5023141;28;20290;-69
2022/10/05 13:22:43;;;;;;;5.20;2.30;;;19.80;99.90;;;;;;5027273;28;20219;-69
2022/10/05 13:25:26;;;;;;;8.57;2.58;;;19.80;99.90;;;;;;5023260;28;20216;-69
2022/10/05 13:27:57;;;;;;;3.08;2.42;;;19.90;99.90;;;;;;5001557;28;20564;-69
2022/10/05 13:30:23;;;;;;;7.22;2.60;;;19.90;99.90;;;;;;5021447;28;20231;-69
2022/10/05 13:33:11;;;;;;;3.65;2.20;;;19.90;99.90;;;;;;5022820;28;20678;-69
2022/10/05 13:35:54;;;;;;;5.68;2.53;;;19.80;99.90;;;;;;5022174;28;20250;-69
2022/10/05 13:38:20;;;;;;;4.35;2.88;;;20.00;99.90;;;;;;5022001;28;20211;-70
2022/10/05 13:41:07;;;;;;;2.85;2.35;;;19.90;99.90;;;;;;5023981;28;20211;-69
2022/10/05 13:43:47;;;;;;;4.97;2.65;;;19.90;99.90;;;;;;5022587;28;20315;-69
2022/10/05 13:46:36;;;;;;;2.65;2.25;;;19.80;99.90;;;;;;5024754;28;20212;-69
2022/10/05 13:49:28;;;;;;;3.53;2.45;;;19.80;99.90;;;;;;5020169;28;20209;-70
2022/10/05 13:52:13;;;;;;;5.30;2.63;;;19.80;99.90;;;;;;5022610;28;20219;-69
2022/10/05 13:54:51;;;;;;;2.70;2.15;;;19.80;99.90;;;;;;5028578;28;20168;-69
2022/10/05 13:57:43;;;;;;;4.43;2.35;;;19.80;99.90;;;;;;5008959;28;20208;-70
2022/10/05 14:00:20;;;;;;;3.70;2.63;;;19.80;99.90;;;;;;5022203;28;20240;-70
2022/10/05 14:02:52;;;;;;;3.13;2.15;;;19.70;99.90;;;;;;5022063;28;20224;-69
2022/10/05 14:05:29;;;;;;;4.68;2.25;;;19.70;99.90;;;;;;5020032;28;20733;-69
2022/10/05 14:08:01;;;;;;;2.92;2.50;;;19.60;99.90;;;;;;5021899;28;20291;-69
2022/10/05 14:10:33;;;;;;;2.60;2.33;;;19.60;99.90;;;;;;5021729;28;20208;-69